Archival Weather

Beaver Creek

Beaver Creek, Yukon (CYXQ)

Report from: Thursday, December 7, 2023 2:00 PM PST
Current time: Tuesday, April 23, 2024 1:46 AM PDT

Current weather – Weather history – Daily summaries
Weather forecast

Temperature-16.0°C (3.2°F)
Dew point-18.0°C (-0.4°F)
Winds Calm
Visibility25 mi. (40.2 km)
Clouds Ceiling: Broken clouds 12,000 ft. (3,658 m)
Altimeter29.56 in.Hg (1001 mB)
Relative humidity84 %
Density altitude-3,697 ft. (-1,127 m)
Sea-level pressure100.7 kPa (1007 mB, 29.75 in.Hg)
Flight conditions Visual Meteorological Conditions
Raw dataCYXQ 072200Z 00000KT 25SM BKN120 M16/M18 A2956 RMK AC7 /TR CM/TR MWE/LAST STFD OBS/NXT 081600Z/ SLP073
An error has occurred. This application may no longer respond until reloaded. Reload 🗙